createdAt,value
2018-07-28T00:00:32.135Z,46.40
2018-07-28T00:03:03.952Z,47.00
2018-07-28T00:05:35.534Z,42.20
2018-07-28T00:08:07.644Z,44.40
2018-07-28T00:10:39.941Z,43.80
2018-07-28T00:13:11.718Z,48.80
2018-07-28T00:15:43.699Z,47.40
2018-07-28T00:18:15.282Z,43.00
2018-07-28T00:20:47.214Z,41.80
2018-07-28T00:23:19.167Z,43.40
2018-07-28T00:25:55.487Z,49.00
2018-07-28T00:28:27.304Z,48.80
2018-07-28T00:30:59.240Z,46.20
2018-07-28T00:33:31.180Z,47.80
2018-07-28T00:36:02.931Z,44.40
2018-07-28T00:38:36.105Z,48.40
2018-07-28T00:41:07.962Z,50.00
2018-07-28T00:43:39.942Z,48.40
2018-07-28T00:46:11.998Z,48.20
2018-07-28T00:48:43.793Z,48.60
2018-07-28T00:51:15.793Z,49.80
2018-07-28T00:53:47.758Z,44.60
2018-07-28T00:56:19.712Z,47.40
2018-07-28T00:58:51.674Z,48.60
2018-07-28T01:01:23.455Z,46.80
2018-07-28T01:03:55.616Z,49.20
2018-07-28T01:06:27.513Z,48.40
2018-07-28T01:08:59.259Z,45.40
2018-07-28T01:11:30.969Z,48.40
2018-07-28T01:14:02.885Z,47.60
2018-07-28T01:16:34.529Z,47.20
2018-07-28T01:19:06.234Z,52.60
2018-07-28T01:21:38.058Z,50.00
2018-07-28T01:24:09.889Z,49.20
2018-07-28T01:26:41.670Z,51.60
2018-07-28T01:29:19.351Z,48.80
2018-07-28T01:31:51.209Z,48.80
2018-07-28T01:34:27.520Z,51.40
2018-07-28T01:36:59.432Z,50.80
2018-07-28T01:39:31.433Z,48.60
2018-07-28T01:42:03.320Z,53.20
2018-07-28T01:44:35.141Z,54.80
2018-07-28T01:47:06.836Z,52.20
2018-07-28T01:49:38.648Z,47.00
2018-07-28T01:52:10.546Z,48.40
2018-07-28T01:54:42.322Z,52.20
2018-07-28T01:57:14.942Z,49.80
2018-07-28T01:59:46.795Z,53.40
2018-07-28T02:02:19.734Z,37.20
2018-07-28T02:04:51.873Z,46.20
2018-07-28T02:07:23.704Z,48.20
2018-07-28T02:09:55.127Z,53.80
2018-07-28T02:12:26.986Z,50.40
2018-07-28T02:14:58.866Z,55.60
2018-07-28T02:17:30.456Z,46.40
2018-07-28T02:20:02.527Z,57.20
2018-07-28T02:22:34.505Z,54.80
2018-07-28T02:25:07.847Z,51.60
2018-07-28T02:27:39.773Z,52.40
2018-07-28T02:30:12.166Z,54.40
2018-07-28T02:32:44.057Z,61.60
2018-07-28T02:35:15.795Z,59.60
2018-07-28T02:37:49.129Z,58.20
2018-07-28T02:40:20.789Z,55.00
2018-07-28T02:42:52.839Z,50.00
2018-07-28T02:45:24.745Z,50.60
2018-07-28T02:47:56.767Z,57.20
2018-07-28T02:50:28.608Z,56.40
2018-07-28T02:53:00.419Z,55.60
2018-07-28T02:55:32.060Z,55.00
2018-07-28T02:58:03.930Z,53.40
2018-07-28T03:00:35.841Z,57.00
2018-07-28T03:03:07.857Z,54.00
2018-07-28T03:05:39.776Z,55.00
2018-07-28T03:08:11.485Z,56.60
2018-07-28T03:10:43.361Z,52.00
2018-07-28T03:13:15.374Z,55.00
2018-07-28T03:15:47.446Z,56.60
2018-07-28T03:18:19.432Z,58.40
2018-07-28T03:20:51.338Z,61.00
2018-07-28T03:23:23.177Z,58.00
2018-07-28T03:25:55.048Z,54.00
2018-07-28T03:28:27.071Z,54.40
2018-07-28T03:30:59.206Z,52.60
2018-07-28T03:33:31.182Z,56.40
2018-07-28T03:36:03.015Z,60.40
2018-07-28T03:38:35.185Z,58.80
2018-07-28T03:41:07.351Z,58.40
2018-07-28T03:43:39.118Z,58.40
2018-07-28T03:46:10.961Z,58.40
2018-07-28T03:48:42.794Z,55.60
2018-07-28T03:51:15.244Z,56.20
2018-07-28T03:53:47.439Z,53.80
2018-07-28T03:56:19.454Z,55.40
2018-07-28T03:58:51.696Z,57.60
2018-07-28T04:01:23.354Z,56.80
2018-07-28T04:03:55.547Z,56.80
2018-07-28T04:06:27.255Z,59.60
2018-07-28T04:08:59.418Z,57.40
2018-07-28T04:11:31.198Z,59.20
2018-07-28T04:14:03.140Z,57.40
2018-07-28T04:16:35.164Z,32.80
2018-07-28T04:19:07.562Z,30.40
2018-07-28T04:21:39.401Z,27.40
2018-07-28T04:24:11.386Z,33.80
2018-07-28T04:26:43.200Z,43.00
2018-07-28T04:29:15.305Z,47.40
2018-07-28T04:31:47.021Z,48.40
2018-07-28T04:34:19.129Z,51.40
2018-07-28T04:36:50.879Z,48.20
2018-07-28T04:39:23.893Z,41.60
2018-07-28T04:41:55.655Z,51.00
2018-07-28T04:44:27.588Z,53.00
2018-07-28T04:46:59.309Z,54.00
2018-07-28T04:49:31.520Z,53.60
2018-07-28T04:52:03.262Z,44.40
2018-07-28T04:54:35.183Z,52.40
2018-07-28T04:57:07.462Z,55.80
2018-07-28T04:59:39.608Z,53.80
2018-07-28T05:02:11.463Z,55.00
2018-07-28T05:04:43.442Z,57.00
2018-07-28T05:07:15.751Z,50.40
2018-07-28T05:09:47.915Z,47.60
2018-07-28T05:12:19.972Z,55.80
2018-07-28T05:14:52.135Z,54.40
2018-07-28T05:17:23.674Z,54.80
2018-07-28T05:19:55.727Z,54.20
2018-07-28T05:22:27.650Z,50.00
2018-07-28T05:24:59.936Z,66.80
2018-07-28T05:27:31.943Z,55.80
2018-07-28T05:30:03.958Z,71.00
2018-07-28T05:32:35.770Z,56.20
2018-07-28T05:35:09.169Z,56.00
2018-07-28T05:37:41.318Z,46.40
2018-07-28T05:40:13.610Z,51.20
2018-07-28T05:42:45.888Z,54.00
2018-07-28T05:45:17.833Z,45.60
2018-07-28T05:47:49.807Z,50.60
2018-07-28T05:50:21.681Z,51.00
2018-07-28T05:52:53.486Z,51.20
2018-07-28T05:55:25.474Z,52.80
2018-07-28T05:57:57.218Z,48.40
2018-07-28T06:00:29.328Z,51.60
2018-07-28T06:03:06.145Z,47.40
2018-07-28T06:05:38.910Z,51.40
2018-07-28T06:08:10.933Z,50.80
2018-07-28T06:10:42.597Z,48.20
2018-07-28T06:13:14.573Z,50.80
2018-07-28T06:15:46.231Z,49.80
2018-07-28T06:18:18.331Z,51.40
2018-07-28T06:20:50.379Z,51.60
2018-07-28T06:23:22.399Z,48.80
2018-07-28T06:25:54.165Z,50.00
2018-07-28T06:28:26.520Z,51.80
2018-07-28T06:30:58.855Z,44.20
2018-07-28T06:33:31.223Z,46.80
2018-07-28T06:36:03.456Z,50.00
2018-07-28T06:38:35.356Z,49.80
2018-07-28T06:41:09.569Z,50.20
2018-07-28T06:43:41.352Z,49.00
2018-07-28T06:46:13.710Z,53.20
2018-07-28T06:48:46.017Z,50.40
2018-07-28T06:51:18.228Z,52.20
2018-07-28T06:53:49.991Z,54.60
2018-07-28T06:56:21.663Z,52.60
2018-07-28T06:58:53.901Z,45.00
2018-07-28T07:01:26.062Z,43.80
2018-07-28T07:03:58.566Z,47.60
2018-07-28T07:06:30.518Z,45.20
2018-07-28T07:09:02.586Z,49.20
2018-07-28T07:11:34.656Z,44.60
2018-07-28T07:14:06.867Z,49.20
2018-07-28T07:16:38.614Z,50.40
2018-07-28T07:19:10.391Z,48.00
2018-07-28T07:21:42.578Z,49.00
2018-07-28T07:24:14.620Z,53.00
2018-07-28T07:26:47.046Z,46.60
2018-07-28T07:29:18.981Z,52.20
2018-07-28T07:31:51.059Z,53.80
2018-07-28T07:34:23.006Z,49.20
2018-07-28T07:36:55.228Z,52.40
2018-07-28T07:39:27.309Z,48.20
2018-07-28T07:43:03.257Z,47.40
2018-07-28T07:45:35.091Z,49.40
2018-07-28T07:48:07.428Z,44.60
2018-07-28T07:50:39.149Z,49.00
2018-07-28T07:53:11.354Z,46.40
2018-07-28T07:55:43.407Z,45.60
2018-07-28T07:58:15.354Z,43.40
2018-07-28T08:00:47.786Z,46.40
2018-07-28T08:03:21.667Z,55.80
2018-07-28T08:05:53.833Z,48.80
2018-07-28T08:08:25.699Z,48.80
2018-07-28T08:10:57.503Z,42.40
2018-07-28T08:13:35.472Z,50.20
2018-07-28T08:16:07.341Z,43.20
2018-07-28T08:18:39.415Z,49.80
2018-07-28T08:21:11.184Z,46.00
2018-07-28T08:23:43.044Z,47.20
2018-07-28T08:26:15.223Z,51.40
2018-07-28T08:28:47.214Z,45.40
2018-07-28T08:31:19.207Z,54.80
2018-07-28T08:33:51.268Z,48.00
2018-07-28T08:36:23.388Z,45.60
2018-07-28T08:38:55.618Z,50.00
2018-07-28T08:41:27.871Z,49.40
2018-07-28T08:44:00.078Z,49.00
2018-07-28T08:46:32.011Z,44.20
2018-07-28T08:49:04.042Z,48.00
2018-07-28T08:51:35.930Z,58.20
2018-07-28T08:54:08.540Z,42.80
2018-07-28T08:56:41.075Z,51.80
2018-07-28T08:59:13.326Z,39.00
2018-07-28T09:01:46.088Z,48.00
2018-07-28T09:04:19.067Z,44.20
2018-07-28T09:06:53.543Z,43.60
2018-07-28T09:09:28.170Z,45.80
2018-07-28T09:12:02.478Z,46.60
2018-07-28T09:14:37.003Z,51.20
2018-07-28T09:17:12.871Z,44.40
2018-07-28T09:19:47.848Z,49.40
2018-07-28T09:22:25.205Z,42.40
2018-07-28T09:24:59.604Z,44.80
2018-07-28T09:27:34.999Z,46.40
2018-07-28T09:30:07.927Z,47.40
2018-07-28T09:32:39.899Z,44.20
2018-07-28T09:35:11.588Z,54.00
2018-07-28T09:37:43.870Z,45.20
2018-07-28T09:40:16.658Z,50.20
2018-07-28T09:42:51.171Z,50.00
2018-07-28T09:45:24.212Z,49.00
2018-07-28T09:47:56.465Z,51.40
2018-07-28T09:50:28.530Z,48.80
2018-07-28T09:53:00.566Z,47.20
2018-07-28T09:55:32.490Z,45.40
2018-07-28T09:58:04.648Z,44.20
2018-07-28T10:00:40.849Z,47.60
2018-07-28T10:03:12.943Z,51.80
2018-07-28T10:05:45.692Z,47.60
2018-07-28T10:08:18.294Z,46.00
2018-07-28T10:10:51.027Z,47.40
2018-07-28T10:13:25.532Z,51.00
2018-07-28T10:16:02.546Z,46.20
2018-07-28T10:18:37.235Z,45.20
2018-07-28T10:21:09.460Z,46.80
2018-07-28T10:23:42.773Z,48.60
2018-07-28T10:26:17.298Z,44.60
2018-07-28T10:28:49.258Z,47.40
2018-07-28T10:31:21.595Z,45.80
2018-07-28T10:33:54.165Z,47.20
2018-07-28T10:36:27.825Z,48.20
2018-07-28T10:39:00.418Z,42.40
2018-07-28T10:41:34.320Z,45.80
2018-07-28T10:44:06.499Z,50.40
2018-07-28T10:46:39.309Z,46.40
2018-07-28T10:49:12.419Z,49.40
2018-07-28T10:51:45.419Z,47.40
2018-07-28T10:54:18.239Z,46.60
2018-07-28T10:56:50.548Z,46.80
2018-07-28T10:59:23.554Z,47.80
2018-07-28T11:01:56.018Z,49.40
2018-07-28T11:04:28.457Z,47.60
2018-07-28T11:07:01.433Z,44.80
2018-07-28T11:09:34.089Z,47.80
2018-07-28T11:12:10.993Z,40.80
2018-07-28T11:14:43.455Z,47.20
2018-07-28T11:17:17.430Z,55.00
2018-07-28T11:19:49.972Z,49.40
2018-07-28T11:22:21.990Z,53.80
2018-07-28T11:24:54.250Z,52.00
2018-07-28T11:27:26.333Z,48.60
2018-07-28T11:29:58.168Z,48.00
2018-07-28T11:32:39.515Z,49.40
2018-07-28T11:35:21.184Z,48.40
2018-07-28T11:38:05.109Z,49.60
2018-07-28T11:40:46.752Z,43.80
2018-07-28T11:43:28.525Z,50.20
2018-07-28T11:46:00.821Z,48.60
2018-07-28T11:48:33.476Z,44.20
2018-07-28T11:51:05.490Z,44.80
2018-07-28T11:53:37.637Z,50.40
2018-07-28T11:56:10.103Z,47.20
2018-07-28T11:58:42.157Z,49.20
2018-07-28T12:01:14.460Z,53.80
2018-07-28T12:03:46.963Z,51.00
2018-07-28T12:06:19.585Z,55.60
2018-07-28T12:08:51.848Z,52.40
2018-07-28T12:11:24.147Z,54.00
2018-07-28T12:13:56.237Z,52.20
2018-07-28T12:16:28.434Z,49.60
2018-07-28T12:19:00.938Z,55.60
2018-07-28T12:21:33.498Z,51.40
2018-07-28T12:24:06.341Z,51.80
2018-07-28T12:26:38.565Z,51.80
2018-07-28T12:29:11.297Z,51.80
2018-07-28T12:31:43.670Z,50.40
2018-07-28T12:34:16.390Z,47.60
2018-07-28T12:36:50.435Z,53.00
2018-07-28T12:39:23.891Z,52.00
2018-07-28T12:41:56.255Z,54.80
2018-07-28T12:44:28.935Z,54.20
2018-07-28T12:47:01.862Z,53.00
2018-07-28T12:49:34.447Z,54.40
2018-07-28T12:52:06.982Z,52.60
2018-07-28T12:54:39.115Z,54.80
2018-07-28T12:57:11.476Z,53.20
2018-07-28T12:59:44.239Z,57.60
2018-07-28T13:02:16.209Z,52.60
2018-07-28T13:04:48.418Z,55.00
2018-07-28T13:07:20.610Z,36.20
2018-07-28T13:09:52.854Z,34.80
2018-07-28T13:12:25.121Z,49.60
2018-07-28T13:14:57.606Z,52.80
2018-07-28T13:17:29.936Z,52.00
2018-07-28T13:20:02.891Z,52.40
2018-07-28T13:22:35.063Z,51.20
2018-07-28T13:25:07.520Z,59.80
2018-07-28T13:27:40.503Z,60.40
2018-07-28T13:30:12.674Z,61.80
2018-07-28T13:32:44.688Z,55.60
2018-07-28T13:35:16.798Z,61.40
2018-07-28T13:37:48.811Z,60.80
2018-07-28T13:40:22.334Z,62.20
2018-07-28T13:42:55.082Z,59.40
2018-07-28T13:45:27.869Z,59.00
2018-07-28T13:47:59.945Z,62.40
2018-07-28T13:50:32.078Z,62.20
2018-07-28T13:53:04.043Z,60.00
2018-07-28T13:55:36.158Z,65.00
2018-07-28T13:58:08.879Z,63.00
2018-07-28T14:00:41.155Z,62.20
2018-07-28T14:03:13.146Z,60.40
2018-07-28T14:05:46.143Z,60.00
2018-07-28T14:08:17.958Z,59.20
2018-07-28T14:10:50.378Z,61.00
2018-07-28T14:13:22.034Z,59.80
2018-07-28T14:15:54.118Z,58.40
2018-07-28T14:18:25.716Z,59.60
2018-07-28T14:20:58.065Z,62.40
2018-07-28T14:23:31.169Z,59.80
2018-07-28T14:26:06.149Z,66.00
2018-07-28T14:28:38.521Z,62.40
2018-07-28T14:31:10.991Z,58.20
2018-07-28T14:33:43.796Z,64.20
2018-07-28T14:36:15.958Z,62.00
2018-07-28T14:38:48.650Z,65.20
2018-07-28T14:41:22.063Z,62.80
2018-07-28T14:43:54.495Z,58.20
2018-07-28T14:46:26.719Z,63.80
2018-07-28T14:48:59.789Z,64.40
2018-07-28T14:51:34.441Z,63.40
2018-07-28T14:54:56.318Z,61.80
2018-07-28T14:57:28.607Z,60.60
2018-07-28T15:00:01.094Z,65.40
2018-07-28T15:02:34.469Z,63.60
2018-07-28T15:05:07.240Z,63.40
2018-07-28T15:07:39.708Z,64.60
2018-07-28T15:10:12.454Z,62.00
2018-07-28T15:12:46.763Z,57.00
2018-07-28T15:15:18.996Z,60.20
2018-07-28T15:17:51.854Z,64.40
2018-07-28T15:20:24.968Z,63.80
2018-07-28T15:22:57.596Z,60.80
2018-07-28T15:25:29.732Z,63.60
2018-07-28T15:28:01.976Z,62.40
2018-07-28T15:30:34.432Z,61.20
2018-07-28T15:33:06.904Z,58.80
2018-07-28T15:35:41.205Z,59.40
2018-07-28T15:38:13.834Z,61.00
2018-07-28T15:40:46.783Z,58.00
2018-07-28T15:43:20.013Z,59.20
2018-07-28T15:45:53.174Z,64.20
2018-07-28T15:48:25.281Z,60.00
2018-07-28T15:50:58.104Z,60.00
2018-07-28T15:53:30.317Z,56.20
2018-07-28T15:56:03.193Z,59.60
2018-07-28T15:58:36.867Z,61.40
2018-07-28T16:01:08.839Z,56.40
2018-07-28T16:03:41.690Z,59.60
2018-07-28T16:06:14.575Z,57.60
2018-07-28T16:08:46.655Z,54.20
2018-07-28T16:11:18.896Z,58.60
2018-07-28T16:13:52.690Z,57.40
2018-07-28T16:16:25.500Z,58.00
2018-07-28T16:18:57.538Z,58.60
2018-07-28T16:21:29.536Z,57.60
2018-07-28T16:24:02.127Z,53.00
2018-07-28T16:26:34.487Z,59.00
2018-07-28T16:29:06.883Z,54.60
2018-07-28T16:31:39.516Z,58.00
2018-07-28T16:34:11.850Z,61.80
2018-07-28T16:36:43.992Z,63.20
2018-07-28T16:39:16.497Z,51.60
2018-07-28T16:41:49.551Z,59.80
2018-07-28T16:44:23.379Z,54.60
2018-07-28T16:46:55.346Z,57.00
2018-07-28T16:49:27.553Z,53.00
2018-07-28T16:51:59.806Z,55.80
2018-07-28T16:54:32.478Z,54.60
2018-07-28T16:57:04.606Z,56.20
2018-07-28T16:59:37.143Z,53.60
2018-07-28T17:02:09.622Z,54.40
2018-07-28T17:04:42.423Z,52.60
2018-07-28T17:07:15.443Z,50.60
2018-07-28T17:09:47.869Z,48.00
2018-07-28T17:12:20.041Z,53.20
2018-07-28T17:14:52.271Z,54.80
2018-07-28T17:17:25.271Z,51.00
2018-07-28T17:19:59.005Z,50.40
2018-07-28T17:22:31.023Z,57.40
2018-07-28T17:25:03.370Z,51.20
2018-07-28T17:27:36.595Z,49.20
2018-07-28T17:30:09.377Z,47.80
2018-07-28T17:32:42.137Z,47.20
2018-07-28T17:35:15.092Z,46.00
2018-07-28T17:37:48.696Z,51.40
2018-07-28T17:40:21.834Z,53.80
2018-07-28T17:42:57.703Z,51.40
2018-07-28T17:45:31.981Z,51.20
2018-07-28T17:48:04.271Z,51.60
2018-07-28T17:50:38.035Z,52.00
2018-07-28T17:53:11.602Z,43.60
2018-07-28T17:55:46.788Z,48.00
2018-07-28T17:58:18.931Z,48.60
2018-07-28T18:00:52.227Z,48.80
2018-07-28T18:03:25.044Z,48.40
2018-07-28T18:05:57.708Z,47.00
2018-07-28T18:08:30.030Z,46.40
2018-07-28T18:11:02.414Z,47.20
2018-07-28T18:13:35.098Z,49.60
2018-07-28T18:16:08.337Z,48.40
2018-07-28T18:18:40.841Z,44.80
2018-07-28T18:21:13.508Z,42.00
2018-07-28T18:23:47.098Z,44.40
2018-07-28T18:26:19.647Z,50.00
2018-07-28T18:28:52.589Z,47.00
2018-07-28T18:31:25.237Z,45.00
2018-07-28T18:33:57.623Z,45.80
2018-07-28T18:36:31.388Z,42.60
2018-07-28T18:39:07.006Z,46.40
2018-07-28T18:41:39.744Z,50.00
2018-07-28T18:44:12.820Z,50.00
2018-07-28T18:46:45.813Z,46.60
2018-07-28T18:49:18.813Z,48.00
2018-07-28T18:51:51.659Z,47.20
2018-07-28T18:54:24.744Z,41.80
2018-07-28T18:56:57.490Z,46.00
2018-07-28T18:59:30.211Z,47.20
2018-07-28T19:02:03.296Z,44.60
2018-07-28T19:04:36.285Z,47.60
2018-07-28T19:07:09.873Z,42.80
2018-07-28T19:09:52.436Z,51.80
2018-07-28T19:12:29.978Z,46.60
2018-07-28T19:15:03.404Z,49.60
2018-07-28T19:17:41.028Z,48.40
2018-07-28T19:20:14.200Z,49.40
2018-07-28T19:24:57.698Z,49.60
2018-07-28T19:27:31.330Z,46.40
2018-07-28T19:30:04.453Z,41.80
2018-07-28T19:32:37.384Z,41.60
2018-07-28T19:35:09.934Z,43.20
2018-07-28T19:37:42.829Z,46.20
2018-07-28T19:40:15.724Z,43.60
2018-07-28T19:42:55.078Z,52.40
2018-07-28T19:45:28.248Z,49.00
2018-07-28T19:48:01.359Z,48.60
2018-07-28T19:50:34.397Z,42.20
2018-07-28T19:53:06.814Z,47.20
2018-07-28T19:55:40.838Z,43.80
2018-07-28T19:58:13.863Z,44.00
2018-07-28T20:00:46.723Z,42.40
2018-07-28T20:03:19.977Z,44.20
2018-07-28T20:05:53.424Z,45.80
2018-07-28T20:08:26.405Z,40.60
2018-07-28T20:10:59.343Z,47.00
2018-07-28T20:13:31.813Z,43.40
2018-07-28T20:16:04.636Z,49.40
2018-07-28T20:18:38.152Z,45.20
2018-07-28T20:21:11.430Z,42.80
2018-07-28T20:23:44.452Z,41.00
2018-07-28T20:26:17.492Z,47.60
2018-07-28T20:28:50.426Z,43.40
2018-07-28T20:31:23.823Z,43.00
2018-07-28T20:33:56.840Z,46.60
2018-07-28T20:36:30.152Z,41.80
2018-07-28T20:39:02.678Z,37.60
2018-07-28T20:41:35.488Z,32.60
2018-07-28T20:44:08.091Z,37.60
2018-07-28T20:46:40.559Z,42.00
2018-07-28T20:49:13.752Z,39.40
2018-07-28T20:51:46.920Z,38.60
2018-07-28T20:54:20.169Z,45.60
2018-07-28T20:56:53.188Z,43.80
2018-07-28T20:59:25.987Z,42.20
2018-07-28T21:01:58.880Z,42.00
2018-07-28T21:04:32.431Z,48.80
2018-07-28T21:07:05.432Z,43.60
2018-07-28T21:09:38.401Z,38.80
2018-07-28T21:12:11.865Z,46.20
2018-07-28T21:14:45.188Z,43.40
2018-07-28T21:17:17.190Z,41.60
2018-07-28T21:19:50.430Z,49.60
2018-07-28T21:22:23.315Z,44.40
2018-07-28T21:24:55.772Z,44.40
2018-07-28T21:27:28.810Z,47.40
2018-07-28T21:30:02.345Z,40.40
2018-07-28T21:32:35.168Z,48.20
2018-07-28T21:35:09.839Z,46.00
2018-07-28T21:37:41.905Z,43.20
2018-07-28T21:40:14.572Z,42.40
2018-07-28T21:42:48.095Z,41.60
2018-07-28T21:45:20.866Z,46.40
2018-07-28T21:47:54.153Z,47.20
2018-07-28T21:50:27.021Z,48.00
2018-07-28T21:52:59.205Z,46.60
2018-07-28T21:55:31.848Z,48.80
2018-07-28T21:58:04.013Z,44.40
2018-07-28T22:00:41.331Z,48.40
2018-07-28T22:03:14.086Z,47.40
2018-07-28T22:05:47.039Z,44.20
2018-07-28T22:08:19.903Z,48.80
2018-07-28T22:10:52.427Z,51.60
2018-07-28T22:13:24.968Z,53.20
2018-07-28T22:15:57.262Z,49.60
2018-07-28T22:18:29.408Z,51.80
2018-07-28T22:21:01.606Z,51.00
2018-07-28T22:23:34.382Z,51.40
2018-07-28T22:26:07.896Z,50.60
2018-07-28T22:28:40.996Z,50.00
2018-07-28T22:31:13.715Z,48.40
2018-07-28T22:33:45.946Z,51.80
2018-07-28T22:36:18.498Z,45.60
2018-07-28T22:38:50.718Z,47.60
2018-07-28T22:41:23.749Z,48.80
2018-07-28T22:43:56.095Z,42.80
2018-07-28T22:46:28.485Z,49.20
2018-07-28T22:49:01.076Z,42.80
2018-07-28T22:51:33.279Z,51.00
2018-07-28T22:54:05.719Z,47.40
2018-07-28T22:56:38.348Z,45.80
2018-07-28T22:59:11.148Z,47.20
2018-07-28T23:01:43.258Z,50.40
2018-07-28T23:04:16.196Z,49.60
2018-07-28T23:06:48.697Z,47.20
2018-07-28T23:09:21.514Z,50.40
2018-07-28T23:11:54.212Z,47.20
2018-07-28T23:14:26.941Z,43.00
2018-07-28T23:16:59.560Z,45.80
2018-07-28T23:19:32.325Z,50.20
2018-07-28T23:22:04.640Z,44.20
2018-07-28T23:24:36.682Z,48.80
2018-07-28T23:27:08.338Z,45.80
2018-07-28T23:29:40.060Z,48.60
2018-07-28T23:32:13.287Z,51.00
2018-07-28T23:34:45.147Z,39.00
2018-07-28T23:37:16.952Z,48.20
2018-07-28T23:39:48.881Z,44.60
2018-07-28T23:42:20.496Z,45.20
2018-07-28T23:44:52.179Z,51.80
2018-07-28T23:47:24.281Z,43.60
2018-07-28T23:49:55.691Z,43.40
2018-07-28T23:52:27.571Z,48.00
2018-07-28T23:54:58.973Z,45.00
2018-07-28T23:57:30.887Z,43.80
